Terminal Aerodrome Forecast
Issued by NWS

Home | Current Version | Previous Version | Graphics & Text | Print | Product List | Glossary On
Versions: 1 2 3 4 5 6 7 8 9 10 11 12 13 14 15 16 17
000
FTUS43 KGRB 291322 AAA
TAFMTW
TAF AMD
KMTW 291322Z 2913/3012 12005KT P6SM VCSH SCT005 OVC015
      TEMPO 2913/2916 5SM -SHRA BR BKN005
     FM291600 15005KT 5SM BR VCSH BKN007 OVC020
     FM292200 17005KT P6SM SCT020 BKN040
     FM300000 VRB03KT P6SM FEW050
     FM300300 VRB03KT 3SM BR SKC
     FM300800 VRB03KT 1/2SM FG BKN002=

USA.gov is the U.S. government's official web portal to all federal, state and local government web resources and services.